sensor_id;sensor_type;location;lat;lon;timestamp;P1;durP1;ratioP1;P2;durP2;ratioP2
21624;SDS011;10974;51.034;3.744;2023-06-26T03:39:34;4.70;;;3.03;;
21624;SDS011;10974;51.034;3.744;2023-06-26T03:42:00;4.60;;;2.80;;
21624;SDS011;10974;51.034;3.744;2023-06-26T03:44:27;6.87;;;3.10;;
21624;SDS011;10974;51.034;3.744;2023-06-26T03:46:53;6.67;;;3.20;;
21624;SDS011;10974;51.034;3.744;2023-06-26T03:49:19;7.57;;;3.00;;
21624;SDS011;10974;51.034;3.744;2023-06-26T03:51:45;7.63;;;3.37;;
21624;SDS011;10974;51.034;3.744;2023-06-26T03:54:11;7.57;;;3.00;;
21624;SDS011;10974;51.034;3.744;2023-06-26T03:56:37;8.87;;;3.37;;
21624;SDS011;10974;51.034;3.744;2023-06-26T03:59:03;7.93;;;3.00;;
21624;SDS011;10974;51.034;3.744;2023-06-26T04:01:30;8.30;;;2.60;;
21624;SDS011;10974;51.034;3.744;2023-06-26T04:03:56;5.27;;;2.77;;
21624;SDS011;10974;51.034;3.744;2023-06-26T04:06:22;4.10;;;2.77;;
21624;SDS011;10974;51.034;3.744;2023-06-26T04:08:48;6.50;;;2.90;;
21624;SDS011;10974;51.034;3.744;2023-06-26T04:11:14;5.03;;;2.73;;
21624;SDS011;10974;51.034;3.744;2023-06-26T04:13:40;5.13;;;2.93;;
21624;SDS011;10974;51.034;3.744;2023-06-26T04:16:06;7.87;;;4.03;;
21624;SDS011;10974;51.034;3.744;2023-06-26T04:18:32;5.13;;;2.80;;
21624;SDS011;10974;51.034;3.744;2023-06-26T04:21:10;3.83;;;2.57;;
21624;SDS011;10974;51.034;3.744;2023-06-26T04:23:37;5.00;;;2.97;;
21624;SDS011;10974;51.034;3.744;2023-06-26T04:26:04;8.30;;;3.60;;
21624;SDS011;10974;51.034;3.744;2023-06-26T04:28:30;4.67;;;2.70;;
21624;SDS011;10974;51.034;3.744;2023-06-26T04:30:57;6.20;;;2.97;;
21624;SDS011;10974;51.034;3.744;2023-06-26T04:33:24;7.23;;;2.63;;
21624;SDS011;10974;51.034;3.744;2023-06-26T04:35:50;8.33;;;2.77;;
21624;SDS011;10974;51.034;3.744;2023-06-26T04:38:16;4.90;;;2.53;;
21624;SDS011;10974;51.034;3.744;2023-06-26T04:40:42;6.00;;;2.40;;
21624;SDS011;10974;51.034;3.744;2023-06-26T04:43:08;5.00;;;2.77;;
21624;SDS011;10974;51.034;3.744;2023-06-26T04:45:34;4.90;;;2.50;;
21624;SDS011;10974;51.034;3.744;2023-06-26T04:48:01;12.40;;;3.20;;
21624;SDS011;10974;51.034;3.744;2023-06-26T04:50:27;4.70;;;2.60;;
21624;SDS011;10974;51.034;3.744;2023-06-26T04:52:54;4.77;;;2.60;;
21624;SDS011;10974;51.034;3.744;2023-06-26T04:55:20;10.23;;;2.93;;
21624;SDS011;10974;51.034;3.744;2023-06-26T04:57:46;5.47;;;2.80;;
21624;SDS011;10974;51.034;3.744;2023-06-26T05:00:13;6.40;;;2.60;;
21624;SDS011;10974;51.034;3.744;2023-06-26T05:02:40;7.87;;;3.07;;
21624;SDS011;10974;51.034;3.744;2023-06-26T05:05:06;8.23;;;3.00;;
21624;SDS011;10974;51.034;3.744;2023-06-26T05:07:32;4.27;;;3.00;;
21624;SDS011;10974;51.034;3.744;2023-06-26T05:09:58;9.93;;;2.90;;
21624;SDS011;10974;51.034;3.744;2023-06-26T05:12:24;4.47;;;2.00;;
21624;SDS011;10974;51.034;3.744;2023-06-26T05:14:50;4.37;;;2.20;;
21624;SDS011;10974;51.034;3.744;2023-06-26T05:17:16;12.27;;;3.07;;
21624;SDS011;10974;51.034;3.744;2023-06-26T05:19:42;5.53;;;2.50;;
21624;SDS011;10974;51.034;3.744;2023-06-26T05:22:09;5.30;;;2.93;;
21624;SDS011;10974;51.034;3.744;2023-06-26T05:24:35;5.80;;;2.50;;
21624;SDS011;10974;51.034;3.744;2023-06-26T05:27:02;9.63;;;2.67;;
21624;SDS011;10974;51.034;3.744;2023-06-26T05:29:28;5.80;;;2.17;;
21624;SDS011;10974;51.034;3.744;2023-06-26T05:31:55;9.53;;;2.30;;
21624;SDS011;10974;51.034;3.744;2023-06-26T05:34:24;5.77;;;2.10;;
21624;SDS011;10974;51.034;3.744;2023-06-26T05:36:54;7.50;;;2.10;;
21624;SDS011;10974;51.034;3.744;2023-06-26T05:39:21;5.27;;;2.20;;
21624;SDS011;10974;51.034;3.744;2023-06-26T05:41:48;6.87;;;3.03;;
21624;SDS011;10974;51.034;3.744;2023-06-26T05:44:14;9.67;;;2.10;;
21624;SDS011;10974;51.034;3.744;2023-06-26T05:46:40;8.93;;;1.90;;
21624;SDS011;10974;51.034;3.744;2023-06-26T05:49:06;3.67;;;2.03;;
21624;SDS011;10974;51.034;3.744;2023-06-26T05:51:32;3.93;;;1.70;;
21624;SDS011;10974;51.034;3.744;2023-06-26T05:53:58;5.87;;;2.00;;
21624;SDS011;10974;51.034;3.744;2023-06-26T05:56:25;3.63;;;1.67;;
21624;SDS011;10974;51.034;3.744;2023-06-26T05:58:51;4.10;;;1.70;;
21624;SDS011;10974;51.034;3.744;2023-06-26T06:01:18;6.50;;;1.87;;
21624;SDS011;10974;51.034;3.744;2023-06-26T06:03:44;6.07;;;1.97;;
21624;SDS011;10974;51.034;3.744;2023-06-26T06:06:11;2.67;;;1.80;;
21624;SDS011;10974;51.034;3.744;2023-06-26T06:08:37;5.33;;;1.80;;
21624;SDS011;10974;51.034;3.744;2023-06-26T06:11:03;6.00;;;2.03;;
21624;SDS011;10974;51.034;3.744;2023-06-26T06:13:29;3.07;;;1.50;;
21624;SDS011;10974;51.034;3.744;2023-06-26T06:15:55;3.27;;;2.00;;
21624;SDS011;10974;51.034;3.744;2023-06-26T06:18:21;5.17;;;1.77;;
21624;SDS011;10974;51.034;3.744;2023-06-26T06:20:47;4.03;;;1.60;;
21624;SDS011;10974;51.034;3.744;2023-06-26T06:23:13;3.77;;;1.90;;
21624;SDS011;10974;51.034;3.744;2023-06-26T06:25:39;4.47;;;1.90;;
21624;SDS011;10974;51.034;3.744;2023-06-26T06:28:05;3.60;;;1.80;;
21624;SDS011;10974;51.034;3.744;2023-06-26T06:30:31;4.00;;;1.60;;
21624;SDS011;10974;51.034;3.744;2023-06-26T06:32:58;3.70;;;2.03;;
21624;SDS011;10974;51.034;3.744;2023-06-26T06:35:24;4.00;;;1.73;;
21624;SDS011;10974;51.034;3.744;2023-06-26T06:37:50;2.70;;;1.70;;
21624;SDS011;10974;51.034;3.744;2023-06-26T06:40:16;2.80;;;1.60;;
21624;SDS011;10974;51.034;3.744;2023-06-26T06:42:42;2.30;;;1.90;;
21624;SDS011;10974;51.034;3.744;2023-06-26T06:45:09;2.30;;;1.37;;
21624;SDS011;10974;51.034;3.744;2023-06-26T06:47:35;5.20;;;1.60;;
21624;SDS011;10974;51.034;3.744;2023-06-26T06:50:02;4.13;;;1.77;;
21624;SDS011;10974;51.034;3.744;2023-06-26T06:52:39;2.70;;;1.47;;
21624;SDS011;10974;51.034;3.744;2023-06-26T06:55:06;2.87;;;1.50;;
21624;SDS011;10974;51.034;3.744;2023-06-26T06:57:34;3.47;;;1.30;;
21624;SDS011;10974;51.034;3.744;2023-06-26T07:00:05;7.27;;;1.30;;
21624;SDS011;10974;51.034;3.744;2023-06-26T07:02:34;2.77;;;1.60;;
21624;SDS011;10974;51.034;3.744;2023-06-26T07:05:00;5.63;;;2.07;;
21624;SDS011;10974;51.034;3.744;2023-06-26T07:07:28;1.83;;;1.40;;
21624;SDS011;10974;51.034;3.744;2023-06-26T07:09:55;1.97;;;1.47;;
21624;SDS011;10974;51.034;3.744;2023-06-26T07:12:21;3.27;;;1.43;;
21624;SDS011;10974;51.034;3.744;2023-06-26T07:14:47;2.60;;;1.50;;
21624;SDS011;10974;51.034;3.744;2023-06-26T07:17:13;2.90;;;1.60;;
21624;SDS011;10974;51.034;3.744;2023-06-26T07:19:39;2.23;;;1.43;;
21624;SDS011;10974;51.034;3.744;2023-06-26T07:22:05;4.10;;;1.80;;
21624;SDS011;10974;51.034;3.744;2023-06-26T07:24:31;2.00;;;1.20;;
21624;SDS011;10974;51.034;3.744;2023-06-26T07:26:57;5.07;;;1.60;;
21624;SDS011;10974;51.034;3.744;2023-06-26T07:29:23;2.00;;;1.37;;
21624;SDS011;10974;51.034;3.744;2023-06-26T07:31:49;2.60;;;1.50;;
21624;SDS011;10974;51.034;3.744;2023-06-26T07:34:15;1.93;;;1.40;;
21624;SDS011;10974;51.034;3.744;2023-06-26T07:36:41;3.20;;;1.43;;
21624;SDS011;10974;51.034;3.744;2023-06-26T07:39:07;2.40;;;1.33;;
21624;SDS011;10974;51.034;3.744;2023-06-26T07:41:33;2.90;;;1.40;;
21624;SDS011;10974;51.034;3.744;2023-06-26T07:44:00;1.30;;;1.03;;
21624;SDS011;10974;51.034;3.744;2023-06-26T07:46:26;1.77;;;1.30;;
21624;SDS011;10974;51.034;3.744;2023-06-26T07:48:52;1.40;;;1.30;;
21624;SDS011;10974;51.034;3.744;2023-06-26T07:51:18;3.77;;;1.47;;
21624;SDS011;10974;51.034;3.744;2023-06-26T07:53:44;1.87;;;1.40;;
21624;SDS011;10974;51.034;3.744;2023-06-26T07:56:10;2.67;;;1.70;;
21624;SDS011;10974;51.034;3.744;2023-06-26T07:58:36;4.00;;;1.53;;
21624;SDS011;10974;51.034;3.744;2023-06-26T08:01:02;3.60;;;1.30;;
21624;SDS011;10974;51.034;3.744;2023-06-26T08:03:28;2.03;;;1.40;;
21624;SDS011;10974;51.034;3.744;2023-06-26T08:05:57;1.77;;;1.33;;
21624;SDS011;10974;51.034;3.744;2023-06-26T08:08:23;2.17;;;1.40;;
21624;SDS011;10974;51.034;3.744;2023-06-26T08:10:49;2.13;;;1.50;;
21624;SDS011;10974;51.034;3.744;2023-06-26T08:13:15;1.43;;;1.17;;
21624;SDS011;10974;51.034;3.744;2023-06-26T08:15:41;3.47;;;1.50;;
21624;SDS011;10974;51.034;3.744;2023-06-26T08:18:07;3.03;;;1.50;;
21624;SDS011;10974;51.034;3.744;2023-06-26T08:20:33;1.73;;;1.30;;
21624;SDS011;10974;51.034;3.744;2023-06-26T08:23:02;2.13;;;1.30;;
21624;SDS011;10974;51.034;3.744;2023-06-26T08:25:28;2.20;;;1.30;;
21624;SDS011;10974;51.034;3.744;2023-06-26T08:27:54;3.30;;;1.40;;
21624;SDS011;10974;51.034;3.744;2023-06-26T08:30:20;3.13;;;1.20;;
21624;SDS011;10974;51.034;3.744;2023-06-26T08:32:46;1.87;;;1.50;;
21624;SDS011;10974;51.034;3.744;2023-06-26T08:35:13;1.40;;;1.30;;
21624;SDS011;10974;51.034;3.744;2023-06-26T08:37:39;3.27;;;1.40;;
21624;SDS011;10974;51.034;3.744;2023-06-26T08:40:06;2.63;;;1.20;;
21624;SDS011;10974;51.034;3.744;2023-06-26T08:42:33;1.97;;;1.20;;
21624;SDS011;10974;51.034;3.744;2023-06-26T08:44:59;2.07;;;1.30;;
21624;SDS011;10974;51.034;3.744;2023-06-26T08:47:25;2.97;;;1.80;;
21624;SDS011;10974;51.034;3.744;2023-06-26T08:52:24;1.73;;;1.30;;
21624;SDS011;10974;51.034;3.744;2023-06-26T08:54:54;2.43;;;1.23;;
21624;SDS011;10974;51.034;3.744;2023-06-26T08:57:22;3.03;;;1.40;;
21624;SDS011;10974;51.034;3.744;2023-06-26T08:59:49;1.93;;;1.30;;
21624;SDS011;10974;51.034;3.744;2023-06-26T09:02:15;1.90;;;1.53;;
21624;SDS011;10974;51.034;3.744;2023-06-26T09:04:41;3.10;;;1.23;;
21624;SDS011;10974;51.034;3.744;2023-06-26T09:07:07;3.37;;;1.57;;
21624;SDS011;10974;51.034;3.744;2023-06-26T09:09:34;2.07;;;1.53;;
21624;SDS011;10974;51.034;3.744;2023-06-26T09:12:01;3.07;;;1.37;;
21624;SDS011;10974;51.034;3.744;2023-06-26T09:14:28;1.97;;;1.50;;
21624;SDS011;10974;51.034;3.744;2023-06-26T09:16:54;1.90;;;1.47;;
21624;SDS011;10974;51.034;3.744;2023-06-26T09:19:20;2.20;;;1.30;;
21624;SDS011;10974;51.034;3.744;2023-06-26T09:21:48;1.40;;;1.30;;
21624;SDS011;10974;51.034;3.744;2023-06-26T09:24:15;1.30;;;1.20;;
21624;SDS011;10974;51.034;3.744;2023-06-26T09:26:42;1.37;;;1.23;;
21624;SDS011;10974;51.034;3.744;2023-06-26T09:29:08;2.07;;;1.50;;
21624;SDS011;10974;51.034;3.744;2023-06-26T09:31:38;2.63;;;1.20;;
21624;SDS011;10974;51.034;3.744;2023-06-26T09:34:05;1.53;;;1.20;;
21624;SDS011;10974;51.034;3.744;2023-06-26T09:36:31;1.17;;;1.07;;
21624;SDS011;10974;51.034;3.744;2023-06-26T09:39:05;1.40;;;1.30;;
21624;SDS011;10974;51.034;3.744;2023-06-26T09:41:36;2.13;;;1.40;;
21624;SDS011;10974;51.034;3.744;2023-06-26T09:44:05;2.00;;;1.40;;
21624;SDS011;10974;51.034;3.744;2023-06-26T09:46:32;2.67;;;1.50;;
21624;SDS011;10974;51.034;3.744;2023-06-26T09:51:25;1.83;;;1.43;;
21624;SDS011;10974;51.034;3.744;2023-06-26T09:53:51;1.43;;;1.20;;
21624;SDS011;10974;51.034;3.744;2023-06-26T09:56:17;2.17;;;1.50;;
21624;SDS011;10974;51.034;3.744;2023-06-26T09:58:43;2.47;;;1.13;;
21624;SDS011;10974;51.034;3.744;2023-06-26T10:01:09;1.50;;;1.03;;
21624;SDS011;10974;51.034;3.744;2023-06-26T10:03:36;1.50;;;1.10;;
21624;SDS011;10974;51.034;3.744;2023-06-26T10:06:02;1.77;;;1.20;;
21624;SDS011;10974;51.034;3.744;2023-06-26T10:08:29;2.47;;;1.40;;
21624;SDS011;10974;51.034;3.744;2023-06-26T10:10:56;1.70;;;1.30;;
21624;SDS011;10974;51.034;3.744;2023-06-26T10:13:25;1.20;;;1.10;;
21624;SDS011;10974;51.034;3.744;2023-06-26T10:15:53;1.37;;;1.13;;
21624;SDS011;10974;51.034;3.744;2023-06-26T10:18:20;2.60;;;1.10;;
21624;SDS011;10974;51.034;3.744;2023-06-26T10:20:47;2.10;;;1.13;;
21624;SDS011;10974;51.034;3.744;2023-06-26T10:23:14;1.77;;;1.50;;
21624;SDS011;10974;51.034;3.744;2023-06-26T10:25:40;3.30;;;1.43;;
21624;SDS011;10974;51.034;3.744;2023-06-26T10:28:07;1.40;;;1.30;;
21624;SDS011;10974;51.034;3.744;2023-06-26T10:30:34;1.30;;;1.10;;
21624;SDS011;10974;51.034;3.744;2023-06-26T10:33:02;1.90;;;1.43;;
21624;SDS011;10974;51.034;3.744;2023-06-26T10:35:28;1.30;;;1.20;;
21624;SDS011;10974;51.034;3.744;2023-06-26T10:38:00;1.60;;;1.37;;
21624;SDS011;10974;51.034;3.744;2023-06-26T10:40:27;1.53;;;1.30;;
21624;SDS011;10974;51.034;3.744;2023-06-26T10:43:06;1.70;;;1.20;;
21624;SDS011;10974;51.034;3.744;2023-06-26T10:45:36;1.73;;;1.40;;
21624;SDS011;10974;51.034;3.744;2023-06-26T10:48:03;1.40;;;1.10;;
21624;SDS011;10974;51.034;3.744;2023-06-26T10:50:32;1.33;;;1.17;;
21624;SDS011;10974;51.034;3.744;2023-06-26T10:55:34;1.60;;;1.30;;
21624;SDS011;10974;51.034;3.744;2023-06-26T10:58:01;3.30;;;1.47;;
21624;SDS011;10974;51.034;3.744;2023-06-26T11:00:30;2.00;;;1.27;;
21624;SDS011;10974;51.034;3.744;2023-06-26T11:02:57;2.13;;;1.03;;
21624;SDS011;10974;51.034;3.744;2023-06-26T11:05:32;3.67;;;1.30;;
21624;SDS011;10974;51.034;3.744;2023-06-26T11:08:06;1.87;;;1.20;;
21624;SDS011;10974;51.034;3.744;2023-06-26T11:10:51;1.30;;;1.10;;
21624;SDS011;10974;51.034;3.744;2023-06-26T11:13:18;1.40;;;1.10;;
21624;SDS011;10974;51.034;3.744;2023-06-26T11:15:44;2.90;;;1.90;;
21624;SDS011;10974;51.034;3.744;2023-06-26T11:18:10;1.37;;;1.27;;
21624;SDS011;10974;51.034;3.744;2023-06-26T11:20:37;2.83;;;1.47;;
21624;SDS011;10974;51.034;3.744;2023-06-26T11:23:04;5.50;;;1.23;;
21624;SDS011;10974;51.034;3.744;2023-06-26T11:25:34;1.20;;;1.10;;
21624;SDS011;10974;51.034;3.744;2023-06-26T11:28:02;1.73;;;1.30;;
21624;SDS011;10974;51.034;3.744;2023-06-26T11:30:28;3.10;;;1.20;;
21624;SDS011;10974;51.034;3.744;2023-06-26T11:33:02;1.30;;;1.20;;
21624;SDS011;10974;51.034;3.744;2023-06-26T11:35:29;1.73;;;1.30;;
21624;SDS011;10974;51.034;3.744;2023-06-26T11:37:55;1.30;;;1.17;;
21624;SDS011;10974;51.034;3.744;2023-06-26T11:40:22;2.50;;;1.13;;
21624;SDS011;10974;51.034;3.744;2023-06-26T11:42:54;2.97;;;1.20;;
21624;SDS011;10974;51.034;3.744;2023-06-26T11:45:20;3.20;;;1.30;;
21624;SDS011;10974;51.034;3.744;2023-06-26T11:47:46;1.73;;;1.43;;
21624;SDS011;10974;51.034;3.744;2023-06-26T11:50:16;1.40;;;1.10;;
21624;SDS011;10974;51.034;3.744;2023-06-26T11:52:45;1.73;;;1.30;;
21624;SDS011;10974;51.034;3.744;2023-06-26T11:55:12;3.60;;;1.43;;
21624;SDS011;10974;51.034;3.744;2023-06-26T11:57:38;1.13;;;1.00;;
21624;SDS011;10974;51.034;3.744;2023-06-26T12:00:14;2.60;;;1.50;;
21624;SDS011;10974;51.034;3.744;2023-06-26T12:02:41;2.53;;;1.30;;
21624;SDS011;10974;51.034;3.744;2023-06-26T12:05:08;2.07;;;1.20;;
21624;SDS011;10974;51.034;3.744;2023-06-26T12:07:34;1.60;;;1.40;;
21624;SDS011;10974;51.034;3.744;2023-06-26T12:10:02;1.70;;;1.07;;
21624;SDS011;10974;51.034;3.744;2023-06-26T12:12:28;2.17;;;1.20;;
21624;SDS011;10974;51.034;3.744;2023-06-26T12:14:54;4.10;;;1.30;;
21624;SDS011;10974;51.034;3.744;2023-06-26T12:17:22;1.70;;;1.30;;
21624;SDS011;10974;51.034;3.744;2023-06-26T12:19:50;1.93;;;1.20;;
21624;SDS011;10974;51.034;3.744;2023-06-26T12:22:16;1.60;;;1.30;;
21624;SDS011;10974;51.034;3.744;2023-06-26T12:24:43;1.87;;;1.00;;
21624;SDS011;10974;51.034;3.744;2023-06-26T12:27:10;2.73;;;1.30;;
21624;SDS011;10974;51.034;3.744;2023-06-26T12:29:38;1.50;;;1.17;;
21624;SDS011;10974;51.034;3.744;2023-06-26T12:32:07;2.50;;;1.50;;
21624;SDS011;10974;51.034;3.744;2023-06-26T12:34:34;1.87;;;1.20;;
21624;SDS011;10974;51.034;3.744;2023-06-26T12:37:01;2.43;;;1.00;;
21624;SDS011;10974;51.034;3.744;2023-06-26T12:39:28;1.30;;;1.17;;
21624;SDS011;10974;51.034;3.744;2023-06-26T12:41:59;1.20;;;1.10;;
21624;SDS011;10974;51.034;3.744;2023-06-26T12:44:29;1.33;;;1.20;;
21624;SDS011;10974;51.034;3.744;2023-06-26T12:46:59;2.70;;;1.20;;
21624;SDS011;10974;51.034;3.744;2023-06-26T12:49:33;1.40;;;1.30;;
21624;SDS011;10974;51.034;3.744;2023-06-26T12:52:00;1.60;;;1.30;;
21624;SDS011;10974;51.034;3.744;2023-06-26T12:54:26;1.33;;;1.23;;
21624;SDS011;10974;51.034;3.744;2023-06-26T12:56:52;1.50;;;1.07;;
21624;SDS011;10974;51.034;3.744;2023-06-26T12:59:19;1.30;;;1.20;;
21624;SDS011;10974;51.034;3.744;2023-06-26T13:01:45;1.47;;;1.10;;
21624;SDS011;10974;51.034;3.744;2023-06-26T13:04:11;5.33;;;1.40;;
21624;SDS011;10974;51.034;3.744;2023-06-26T13:06:37;1.93;;;1.10;;
21624;SDS011;10974;51.034;3.744;2023-06-26T13:09:03;1.40;;;1.30;;
21624;SDS011;10974;51.034;3.744;2023-06-26T13:11:29;1.57;;;1.20;;
21624;SDS011;10974;51.034;3.744;2023-06-26T13:13:56;1.10;;;1.10;;
21624;SDS011;10974;51.034;3.744;2023-06-26T13:16:22;1.30;;;1.20;;
21624;SDS011;10974;51.034;3.744;2023-06-26T13:18:48;1.80;;;1.13;;
21624;SDS011;10974;51.034;3.744;2023-06-26T13:21:14;2.43;;;1.40;;
21624;SDS011;10974;51.034;3.744;2023-06-26T13:23:41;1.30;;;1.20;;
21624;SDS011;10974;51.034;3.744;2023-06-26T13:26:07;1.40;;;1.30;;
21624;SDS011;10974;51.034;3.744;2023-06-26T13:28:34;1.40;;;1.30;;
21624;SDS011;10974;51.034;3.744;2023-06-26T13:31:00;1.00;;;1.00;;
21624;SDS011;10974;51.034;3.744;2023-06-26T13:33:26;1.53;;;1.43;;
21624;SDS011;10974;51.034;3.744;2023-06-26T13:35:52;1.23;;;1.13;;
21624;SDS011;10974;51.034;3.744;2023-06-26T13:38:21;1.57;;;1.47;;
21624;SDS011;10974;51.034;3.744;2023-06-26T13:40:51;1.40;;;1.03;;
21624;SDS011;10974;51.034;3.744;2023-06-26T13:43:17;1.87;;;1.00;;
21624;SDS011;10974;51.034;3.744;2023-06-26T13:45:44;2.00;;;1.20;;
21624;SDS011;10974;51.034;3.744;2023-06-26T13:48:10;3.00;;;1.40;;
21624;SDS011;10974;51.034;3.744;2023-06-26T13:50:36;1.67;;;1.10;;
21624;SDS011;10974;51.034;3.744;2023-06-26T13:53:02;1.23;;;1.13;;
21624;SDS011;10974;51.034;3.744;2023-06-26T13:55:28;1.70;;;1.30;;
21624;SDS011;10974;51.034;3.744;2023-06-26T13:57:54;1.20;;;1.10;;
21624;SDS011;10974;51.034;3.744;2023-06-26T14:00:21;1.63;;;1.33;;
21624;SDS011;10974;51.034;3.744;2023-06-26T14:02:47;1.53;;;1.33;;
21624;SDS011;10974;51.034;3.744;2023-06-26T14:05:14;1.40;;;0.90;;
21624;SDS011;10974;51.034;3.744;2023-06-26T14:07:40;1.00;;;1.00;;
21624;SDS011;10974;51.034;3.744;2023-06-26T14:10:08;1.33;;;1.10;;
21624;SDS011;10974;51.034;3.744;2023-06-26T14:12:34;2.10;;;1.40;;
21624;SDS011;10974;51.034;3.744;2023-06-26T14:15:00;1.40;;;1.30;;
21624;SDS011;10974;51.034;3.744;2023-06-26T14:17:26;2.43;;;1.30;;
21624;SDS011;10974;51.034;3.744;2023-06-26T14:19:52;2.23;;;1.07;;
21624;SDS011;10974;51.034;3.744;2023-06-26T14:22:18;1.33;;;1.00;;
21624;SDS011;10974;51.034;3.744;2023-06-26T14:24:45;2.63;;;1.10;;
21624;SDS011;10974;51.034;3.744;2023-06-26T14:27:12;3.67;;;1.30;;
21624;SDS011;10974;51.034;3.744;2023-06-26T14:29:38;1.20;;;1.10;;
21624;SDS011;10974;51.034;3.744;2023-06-26T14:32:04;1.30;;;1.20;;
21624;SDS011;10974;51.034;3.744;2023-06-26T14:34:30;1.80;;;1.20;;
21624;SDS011;10974;51.034;3.744;2023-06-26T14:36:56;1.73;;;1.10;;
21624;SDS011;10974;51.034;3.744;2023-06-26T14:39:22;2.90;;;1.00;;
21624;SDS011;10974;51.034;3.744;2023-06-26T14:41:48;1.80;;;1.30;;
21624;SDS011;10974;51.034;3.744;2023-06-26T14:44:14;1.40;;;1.30;;
21624;SDS011;10974;51.034;3.744;2023-06-26T14:46:40;1.17;;;1.00;;
21624;SDS011;10974;51.034;3.744;2023-06-26T14:49:07;1.70;;;1.00;;
21624;SDS011;10974;51.034;3.744;2023-06-26T14:51:33;1.53;;;1.10;;
21624;SDS011;10974;51.034;3.744;2023-06-26T14:53:59;1.53;;;1.10;;
21624;SDS011;10974;51.034;3.744;2023-06-26T14:56:25;1.50;;;1.20;;
21624;SDS011;10974;51.034;3.744;2023-06-26T14:58:51;2.47;;;1.27;;
21624;SDS011;10974;51.034;3.744;2023-06-26T15:01:18;1.47;;;1.07;;
21624;SDS011;10974;51.034;3.744;2023-06-26T15:03:45;2.13;;;1.20;;
21624;SDS011;10974;51.034;3.744;2023-06-26T15:06:11;1.43;;;1.30;;
21624;SDS011;10974;51.034;3.744;2023-06-26T15:08:37;1.80;;;1.53;;
21624;SDS011;10974;51.034;3.744;2023-06-26T15:11:03;1.57;;;1.17;;
21624;SDS011;10974;51.034;3.744;2023-06-26T15:13:29;2.57;;;1.50;;
21624;SDS011;10974;51.034;3.744;2023-06-26T15:15:55;1.10;;;1.00;;
21624;SDS011;10974;51.034;3.744;2023-06-26T15:18:21;1.57;;;1.20;;
21624;SDS011;10974;51.034;3.744;2023-06-26T15:20:48;1.50;;;1.33;;
21624;SDS011;10974;51.034;3.744;2023-06-26T15:23:14;1.47;;;1.07;;
21624;SDS011;10974;51.034;3.744;2023-06-26T15:25:40;1.40;;;1.30;;
21624;SDS011;10974;51.034;3.744;2023-06-26T15:28:06;2.30;;;1.33;;
21624;SDS011;10974;51.034;3.744;2023-06-26T15:30:32;2.20;;;1.30;;
21624;SDS011;10974;51.034;3.744;2023-06-26T15:32:58;1.30;;;1.07;;
21624;SDS011;10974;51.034;3.744;2023-06-26T15:35:24;0.93;;;0.80;;
21624;SDS011;10974;51.034;3.744;2023-06-26T15:37:51;1.10;;;1.00;;
21624;SDS011;10974;51.034;3.744;2023-06-26T15:40:17;3.97;;;1.30;;
21624;SDS011;10974;51.034;3.744;2023-06-26T15:42:50;1.17;;;1.07;;
21624;SDS011;10974;51.034;3.744;2023-06-26T15:45:17;0.90;;;0.83;;
21624;SDS011;10974;51.034;3.744;2023-06-26T15:47:44;1.30;;;1.20;;
21624;SDS011;10974;51.034;3.744;2023-06-26T15:50:10;1.87;;;1.33;;
21624;SDS011;10974;51.034;3.744;2023-06-26T15:52:37;1.63;;;1.30;;
21624;SDS011;10974;51.034;3.744;2023-06-26T15:55:03;1.30;;;1.17;;
21624;SDS011;10974;51.034;3.744;2023-06-26T15:57:30;1.17;;;1.00;;
21624;SDS011;10974;51.034;3.744;2023-06-26T15:59:57;2.00;;;1.13;;
21624;SDS011;10974;51.034;3.744;2023-06-26T16:02:23;2.60;;;1.10;;
21624;SDS011;10974;51.034;3.744;2023-06-26T16:04:49;1.40;;;1.00;;
21624;SDS011;10974;51.034;3.744;2023-06-26T16:07:15;2.43;;;0.90;;
21624;SDS011;10974;51.034;3.744;2023-06-26T16:09:41;1.97;;;1.30;;
21624;SDS011;10974;51.034;3.744;2023-06-26T16:12:07;1.57;;;1.13;;
21624;SDS011;10974;51.034;3.744;2023-06-26T16:14:33;1.47;;;1.23;;
21624;SDS011;10974;51.034;3.744;2023-06-26T16:16:59;2.60;;;1.20;;
21624;SDS011;10974;51.034;3.744;2023-06-26T16:19:26;1.73;;;1.10;;
21624;SDS011;10974;51.034;3.744;2023-06-26T16:21:52;2.30;;;1.30;;
21624;SDS011;10974;51.034;3.744;2023-06-26T16:24:18;1.40;;;1.30;;
21624;SDS011;10974;51.034;3.744;2023-06-26T16:26:44;1.50;;;1.40;;
21624;SDS011;10974;51.034;3.744;2023-06-26T16:29:10;1.87;;;1.33;;
21624;SDS011;10974;51.034;3.744;2023-06-26T16:31:36;1.30;;;1.20;;
21624;SDS011;10974;51.034;3.744;2023-06-26T16:34:02;1.80;;;1.27;;
21624;SDS011;10974;51.034;3.744;2023-06-26T16:36:28;1.50;;;1.23;;
21624;SDS011;10974;51.034;3.744;2023-06-26T16:38:54;1.60;;;1.50;;
21624;SDS011;10974;51.034;3.744;2023-06-26T16:41:20;2.00;;;1.40;;
21624;SDS011;10974;51.034;3.744;2023-06-26T16:43:48;1.13;;;0.97;;
21624;SDS011;10974;51.034;3.744;2023-06-26T16:46:14;1.67;;;1.17;;
21624;SDS011;10974;51.034;3.744;2023-06-26T16:48:41;1.93;;;1.40;;
21624;SDS011;10974;51.034;3.744;2023-06-26T16:51:07;3.03;;;1.70;;
21624;SDS011;10974;51.034;3.744;2023-06-26T16:53:33;5.50;;;1.80;;
21624;SDS011;10974;51.034;3.744;2023-06-26T16:55:59;7.40;;;2.70;;
21624;SDS011;10974;51.034;3.744;2023-06-26T16:58:25;11.93;;;1.90;;
21624;SDS011;10974;51.034;3.744;2023-06-26T17:00:51;4.40;;;1.87;;
21624;SDS011;10974;51.034;3.744;2023-06-26T17:03:17;11.53;;;2.07;;
21624;SDS011;10974;51.034;3.744;2023-06-26T17:05:46;12.77;;;2.07;;
21624;SDS011;10974;51.034;3.744;2023-06-26T17:08:12;3.50;;;1.60;;
21624;SDS011;10974;51.034;3.744;2023-06-26T17:10:38;7.77;;;1.90;;
21624;SDS011;10974;51.034;3.744;2023-06-26T17:13:04;4.83;;;2.33;;
21624;SDS011;10974;51.034;3.744;2023-06-26T17:15:31;8.30;;;2.97;;
21624;SDS011;10974;51.034;3.744;2023-06-26T17:17:57;14.67;;;2.10;;
21624;SDS011;10974;51.034;3.744;2023-06-26T17:20:23;5.90;;;1.80;;
21624;SDS011;10974;51.034;3.744;2023-06-26T17:22:49;4.47;;;1.97;;
21624;SDS011;10974;51.034;3.744;2023-06-26T17:25:15;6.93;;;1.73;;
21624;SDS011;10974;51.034;3.744;2023-06-26T17:27:42;4.40;;;1.80;;
21624;SDS011;10974;51.034;3.744;2023-06-26T17:30:08;3.60;;;1.70;;
21624;SDS011;10974;51.034;3.744;2023-06-26T17:32:34;5.87;;;1.40;;
21624;SDS011;10974;51.034;3.744;2023-06-26T17:35:00;8.30;;;1.50;;
21624;SDS011;10974;51.034;3.744;2023-06-26T17:37:27;4.87;;;1.90;;
21624;SDS011;10974;51.034;3.744;2023-06-26T17:39:53;8.37;;;2.13;;
21624;SDS011;10974;51.034;3.744;2023-06-26T17:42:20;5.60;;;2.13;;
21624;SDS011;10974;51.034;3.744;2023-06-26T17:44:46;3.53;;;1.80;;
21624;SDS011;10974;51.034;3.744;2023-06-26T17:47:12;6.00;;;1.70;;
21624;SDS011;10974;51.034;3.744;2023-06-26T17:49:39;4.90;;;1.63;;
21624;SDS011;10974;51.034;3.744;2023-06-26T17:52:05;4.47;;;2.00;;
21624;SDS011;10974;51.034;3.744;2023-06-26T17:54:31;2.27;;;1.67;;
21624;SDS011;10974;51.034;3.744;2023-06-26T17:56:57;5.13;;;1.97;;
21624;SDS011;10974;51.034;3.744;2023-06-26T17:59:23;6.27;;;1.80;;
21624;SDS011;10974;51.034;3.744;2023-06-26T18:01:49;4.07;;;1.87;;
21624;SDS011;10974;51.034;3.744;2023-06-26T18:04:15;4.33;;;1.73;;
21624;SDS011;10974;51.034;3.744;2023-06-26T18:06:42;7.13;;;1.97;;
21624;SDS011;10974;51.034;3.744;2023-06-26T18:09:08;1.90;;;1.50;;
21624;SDS011;10974;51.034;3.744;2023-06-26T18:11:35;5.50;;;1.80;;
21624;SDS011;10974;51.034;3.744;2023-06-26T18:14:01;2.97;;;1.43;;
21624;SDS011;10974;51.034;3.744;2023-06-26T18:16:28;3.33;;;1.60;;
21624;SDS011;10974;51.034;3.744;2023-06-26T18:18:54;4.30;;;1.80;;
21624;SDS011;10974;51.034;3.744;2023-06-26T18:21:21;3.43;;;1.57;;
21624;SDS011;10974;51.034;3.744;2023-06-26T18:23:47;4.00;;;1.30;;
21624;SDS011;10974;51.034;3.744;2023-06-26T18:26:14;1.73;;;1.50;;
21624;SDS011;10974;51.034;3.744;2023-06-26T18:28:40;6.13;;;2.20;;
21624;SDS011;10974;51.034;3.744;2023-06-26T18:31:07;3.17;;;1.40;;